sensor_id;sensor_type;location;lat;lon;timestamp;P1;durP1;ratioP1;P2;durP2;ratioP2
44606;SDS011;30315;46.072;14.474;2023-05-23T00:01:38;10.80;;;7.63;;
44606;SDS011;30315;46.072;14.474;2023-05-23T00:04:05;9.30;;;6.80;;
44606;SDS011;30315;46.072;14.474;2023-05-23T00:06:32;8.07;;;7.38;;
44606;SDS011;30315;46.072;14.474;2023-05-23T00:09:00;8.07;;;7.38;;
44606;SDS011;30315;46.072;14.474;2023-05-23T00:11:27;7.63;;;6.97;;
44606;SDS011;30315;46.072;14.474;2023-05-23T00:13:54;7.75;;;7.05;;
44606;SDS011;30315;46.072;14.474;2023-05-23T00:16:22;9.38;;;8.52;;
44606;SDS011;30315;46.072;14.474;2023-05-23T00:18:49;7.95;;;7.22;;
44606;SDS011;30315;46.072;14.474;2023-05-23T00:21:17;8.27;;;6.85;;
44606;SDS011;30315;46.072;14.474;2023-05-23T00:23:44;7.20;;;6.57;;
44606;SDS011;30315;46.072;14.474;2023-05-23T00:26:11;10.30;;;7.28;;
44606;SDS011;30315;46.072;14.474;2023-05-23T00:28:43;8.85;;;6.95;;
44606;SDS011;30315;46.072;14.474;2023-05-23T00:31:10;8.23;;;7.40;;
44606;SDS011;30315;46.072;14.474;2023-05-23T00:33:37;9.55;;;7.43;;
44606;SDS011;30315;46.072;14.474;2023-05-23T00:36:04;8.32;;;7.35;;
44606;SDS011;30315;46.072;14.474;2023-05-23T00:38:31;8.63;;;7.82;;
44606;SDS011;30315;46.072;14.474;2023-05-23T00:40:59;8.73;;;7.65;;
44606;SDS011;30315;46.072;14.474;2023-05-23T00:43:26;11.38;;;7.60;;
44606;SDS011;30315;46.072;14.474;2023-05-23T00:45:54;8.68;;;7.60;;
44606;SDS011;30315;46.072;14.474;2023-05-23T00:48:22;8.50;;;7.70;;
44606;SDS011;30315;46.072;14.474;2023-05-23T00:50:52;8.30;;;7.50;;
44606;SDS011;30315;46.072;14.474;2023-05-23T00:53:20;8.10;;;7.17;;
44606;SDS011;30315;46.072;14.474;2023-05-23T00:55:48;8.52;;;7.65;;
44606;SDS011;30315;46.072;14.474;2023-05-23T00:58:15;8.20;;;7.63;;
44606;SDS011;30315;46.072;14.474;2023-05-23T01:00:43;9.57;;;8.07;;
44606;SDS011;30315;46.072;14.474;2023-05-23T01:03:10;8.68;;;7.80;;
44606;SDS011;30315;46.072;14.474;2023-05-23T01:05:44;8.90;;;8.13;;
44606;SDS011;30315;46.072;14.474;2023-05-23T01:08:11;9.57;;;8.77;;
44606;SDS011;30315;46.072;14.474;2023-05-23T01:10:38;9.13;;;8.40;;
44606;SDS011;30315;46.072;14.474;2023-05-23T01:21:37;9.32;;;8.10;;
44606;SDS011;30315;46.072;14.474;2023-05-23T01:29:48;8.20;;;7.50;;
44606;SDS011;30315;46.072;14.474;2023-05-23T01:32:21;8.23;;;7.60;;
44606;SDS011;30315;46.072;14.474;2023-05-23T01:34:52;8.70;;;7.68;;
44606;SDS011;30315;46.072;14.474;2023-05-23T01:37:20;8.88;;;6.93;;
44606;SDS011;30315;46.072;14.474;2023-05-23T01:39:47;8.32;;;7.53;;
44606;SDS011;30315;46.072;14.474;2023-05-23T01:42:14;7.90;;;7.22;;
44606;SDS011;30315;46.072;14.474;2023-05-23T01:44:43;9.90;;;8.23;;
44606;SDS011;30315;46.072;14.474;2023-05-23T01:47:11;8.40;;;7.60;;
44606;SDS011;30315;46.072;14.474;2023-05-23T01:49:39;8.60;;;7.32;;
44606;SDS011;30315;46.072;14.474;2023-05-23T01:52:07;8.18;;;7.47;;
44606;SDS011;30315;46.072;14.474;2023-05-23T01:54:38;8.60;;;7.85;;
44606;SDS011;30315;46.072;14.474;2023-05-23T01:57:08;8.40;;;7.80;;
44606;SDS011;30315;46.072;14.474;2023-05-23T01:59:37;7.78;;;7.10;;
44606;SDS011;30315;46.072;14.474;2023-05-23T02:02:04;7.75;;;7.13;;
44606;SDS011;30315;46.072;14.474;2023-05-23T02:04:31;9.20;;;7.75;;
44606;SDS011;30315;46.072;14.474;2023-05-23T02:07:01;8.90;;;8.18;;
44606;SDS011;30315;46.072;14.474;2023-05-23T02:09:28;9.13;;;8.05;;
44606;SDS011;30315;46.072;14.474;2023-05-23T02:11:55;10.13;;;7.95;;
44606;SDS011;30315;46.072;14.474;2023-05-23T02:14:22;8.75;;;8.00;;
44606;SDS011;30315;46.072;14.474;2023-05-23T02:16:51;8.68;;;7.97;;
44606;SDS011;30315;46.072;14.474;2023-05-23T02:22:08;9.35;;;8.40;;
44606;SDS011;30315;46.072;14.474;2023-05-23T02:24:35;10.13;;;9.00;;
44606;SDS011;30315;46.072;14.474;2023-05-23T02:27:02;8.85;;;8.15;;
44606;SDS011;30315;46.072;14.474;2023-05-23T02:29:29;9.65;;;7.93;;
44606;SDS011;30315;46.072;14.474;2023-05-23T02:31:57;8.27;;;7.57;;
44606;SDS011;30315;46.072;14.474;2023-05-23T02:34:24;8.80;;;7.97;;
44606;SDS011;30315;46.072;14.474;2023-05-23T02:36:51;7.95;;;7.32;;
44606;SDS011;30315;46.072;14.474;2023-05-23T02:39:18;8.15;;;7.22;;
44606;SDS011;30315;46.072;14.474;2023-05-23T02:41:45;7.68;;;6.95;;
44606;SDS011;30315;46.072;14.474;2023-05-23T02:44:12;9.20;;;7.88;;
44606;SDS011;30315;46.072;14.474;2023-05-23T02:46:40;8.05;;;7.30;;
44606;SDS011;30315;46.072;14.474;2023-05-23T02:49:07;8.07;;;7.30;;
44606;SDS011;30315;46.072;14.474;2023-05-23T02:51:34;9.25;;;7.40;;
44606;SDS011;30315;46.072;14.474;2023-05-23T02:54:02;8.57;;;7.65;;
44606;SDS011;30315;46.072;14.474;2023-05-23T02:56:33;10.18;;;7.97;;
44606;SDS011;30315;46.072;14.474;2023-05-23T02:59:00;9.65;;;7.95;;
44606;SDS011;30315;46.072;14.474;2023-05-23T03:01:27;8.43;;;7.72;;
44606;SDS011;30315;46.072;14.474;2023-05-23T03:03:54;7.82;;;7.07;;
44606;SDS011;30315;46.072;14.474;2023-05-23T03:06:21;8.73;;;7.93;;
44606;SDS011;30315;46.072;14.474;2023-05-23T03:08:48;9.23;;;8.48;;
44606;SDS011;30315;46.072;14.474;2023-05-23T03:11:16;8.23;;;7.40;;
44606;SDS011;30315;46.072;14.474;2023-05-23T03:13:43;10.55;;;8.57;;
44606;SDS011;30315;46.072;14.474;2023-05-23T03:16:10;9.93;;;7.40;;
44606;SDS011;30315;46.072;14.474;2023-05-23T03:18:38;8.88;;;8.00;;
44606;SDS011;30315;46.072;14.474;2023-05-23T03:21:07;8.98;;;8.25;;
44606;SDS011;30315;46.072;14.474;2023-05-23T03:23:35;8.98;;;8.27;;
44606;SDS011;30315;46.072;14.474;2023-05-23T03:26:02;8.85;;;8.10;;
44606;SDS011;30315;46.072;14.474;2023-05-23T03:28:29;8.32;;;7.55;;
44606;SDS011;30315;46.072;14.474;2023-05-23T03:30:57;9.23;;;7.93;;
44606;SDS011;30315;46.072;14.474;2023-05-23T03:33:24;8.80;;;7.72;;
44606;SDS011;30315;46.072;14.474;2023-05-23T03:35:51;8.30;;;7.60;;
44606;SDS011;30315;46.072;14.474;2023-05-23T03:38:19;8.57;;;7.93;;
44606;SDS011;30315;46.072;14.474;2023-05-23T03:40:46;9.25;;;8.38;;
44606;SDS011;30315;46.072;14.474;2023-05-23T03:43:13;10.82;;;8.70;;
44606;SDS011;30315;46.072;14.474;2023-05-23T03:45:42;9.40;;;8.48;;
44606;SDS011;30315;46.072;14.474;2023-05-23T03:48:12;9.32;;;8.07;;
44606;SDS011;30315;46.072;14.474;2023-05-23T03:50:40;8.55;;;7.75;;
44606;SDS011;30315;46.072;14.474;2023-05-23T03:53:09;8.13;;;7.53;;
44606;SDS011;30315;46.072;14.474;2023-05-23T03:55:37;9.20;;;8.40;;
44606;SDS011;30315;46.072;14.474;2023-05-23T03:58:05;9.52;;;8.43;;
44606;SDS011;30315;46.072;14.474;2023-05-23T04:00:32;10.15;;;8.32;;
44606;SDS011;30315;46.072;14.474;2023-05-23T04:03:02;9.73;;;8.20;;
44606;SDS011;30315;46.072;14.474;2023-05-23T04:05:30;9.93;;;8.95;;
44606;SDS011;30315;46.072;14.474;2023-05-23T04:07:58;9.30;;;8.40;;
44606;SDS011;30315;46.072;14.474;2023-05-23T04:10:27;11.97;;;8.30;;
44606;SDS011;30315;46.072;14.474;2023-05-23T04:12:54;10.68;;;8.65;;
44606;SDS011;30315;46.072;14.474;2023-05-23T04:15:22;9.05;;;8.25;;
44606;SDS011;30315;46.072;14.474;2023-05-23T04:18:05;11.38;;;8.50;;
44606;SDS011;30315;46.072;14.474;2023-05-23T04:20:35;10.88;;;8.95;;
44606;SDS011;30315;46.072;14.474;2023-05-23T04:23:03;10.43;;;8.07;;
44606;SDS011;30315;46.072;14.474;2023-05-23T04:25:33;8.82;;;7.88;;
44606;SDS011;30315;46.072;14.474;2023-05-23T04:28:09;12.10;;;8.48;;
44606;SDS011;30315;46.072;14.474;2023-05-23T04:30:37;11.07;;;8.50;;
44606;SDS011;30315;46.072;14.474;2023-05-23T04:33:05;12.45;;;8.35;;
44606;SDS011;30315;46.072;14.474;2023-05-23T04:35:33;9.77;;;8.75;;
44606;SDS011;30315;46.072;14.474;2023-05-23T04:38:05;9.55;;;8.38;;
44606;SDS011;30315;46.072;14.474;2023-05-23T04:40:33;10.93;;;8.90;;
44606;SDS011;30315;46.072;14.474;2023-05-23T04:43:06;10.55;;;9.50;;
44606;SDS011;30315;46.072;14.474;2023-05-23T04:45:47;12.43;;;8.98;;
44606;SDS011;30315;46.072;14.474;2023-05-23T04:48:36;9.50;;;8.50;;
44606;SDS011;30315;46.072;14.474;2023-05-23T04:51:04;10.05;;;8.60;;
44606;SDS011;30315;46.072;14.474;2023-05-23T04:53:38;12.38;;;9.07;;
44606;SDS011;30315;46.072;14.474;2023-05-23T04:56:08;10.27;;;9.27;;
44606;SDS011;30315;46.072;14.474;2023-05-23T04:58:37;13.50;;;9.35;;
44606;SDS011;30315;46.072;14.474;2023-05-23T05:01:07;11.10;;;9.02;;
44606;SDS011;30315;46.072;14.474;2023-05-23T05:03:35;9.88;;;8.27;;
44606;SDS011;30315;46.072;14.474;2023-05-23T05:06:02;9.68;;;8.88;;
44606;SDS011;30315;46.072;14.474;2023-05-23T05:08:31;10.45;;;9.55;;
44606;SDS011;30315;46.072;14.474;2023-05-23T05:10:58;9.57;;;8.68;;
44606;SDS011;30315;46.072;14.474;2023-05-23T05:13:26;9.52;;;8.57;;
44606;SDS011;30315;46.072;14.474;2023-05-23T05:15:54;9.95;;;8.95;;
44606;SDS011;30315;46.072;14.474;2023-05-23T05:18:24;10.48;;;9.32;;
44606;SDS011;30315;46.072;14.474;2023-05-23T05:20:54;10.30;;;8.68;;
44606;SDS011;30315;46.072;14.474;2023-05-23T05:23:24;9.77;;;8.82;;
44606;SDS011;30315;46.072;14.474;2023-05-23T05:25:51;10.27;;;9.13;;
44606;SDS011;30315;46.072;14.474;2023-05-23T05:28:19;9.52;;;8.63;;
44606;SDS011;30315;46.072;14.474;2023-05-23T05:30:52;9.63;;;8.73;;
44606;SDS011;30315;46.072;14.474;2023-05-23T05:33:21;10.02;;;9.00;;
44606;SDS011;30315;46.072;14.474;2023-05-23T05:36:01;10.82;;;8.73;;
44606;SDS011;30315;46.072;14.474;2023-05-23T05:38:29;9.48;;;8.50;;
44606;SDS011;30315;46.072;14.474;2023-05-23T05:40:56;12.05;;;8.77;;
44606;SDS011;30315;46.072;14.474;2023-05-23T05:43:27;10.13;;;9.10;;
44606;SDS011;30315;46.072;14.474;2023-05-23T05:45:54;11.05;;;9.27;;
44606;SDS011;30315;46.072;14.474;2023-05-23T05:48:21;10.55;;;9.43;;
44606;SDS011;30315;46.072;14.474;2023-05-23T05:50:50;14.73;;;9.10;;
44606;SDS011;30315;46.072;14.474;2023-05-23T05:53:18;9.70;;;8.90;;
44606;SDS011;30315;46.072;14.474;2023-05-23T05:55:45;11.27;;;9.30;;
44606;SDS011;30315;46.072;14.474;2023-05-23T05:58:11;18.63;;;10.05;;
44606;SDS011;30315;46.072;14.474;2023-05-23T06:00:49;15.18;;;10.70;;
44606;SDS011;30315;46.072;14.474;2023-05-23T06:03:17;11.25;;;9.30;;
44606;SDS011;30315;46.072;14.474;2023-05-23T06:05:51;11.15;;;10.15;;
44606;SDS011;30315;46.072;14.474;2023-05-23T06:08:20;10.95;;;9.85;;
44606;SDS011;30315;46.072;14.474;2023-05-23T06:10:49;13.15;;;10.60;;
44606;SDS011;30315;46.072;14.474;2023-05-23T06:13:17;10.68;;;9.60;;
44606;SDS011;30315;46.072;14.474;2023-05-23T06:15:50;11.68;;;10.48;;
44606;SDS011;30315;46.072;14.474;2023-05-23T06:18:19;14.93;;;11.52;;
44606;SDS011;30315;46.072;14.474;2023-05-23T06:20:49;12.57;;;10.88;;
44606;SDS011;30315;46.072;14.474;2023-05-23T06:23:19;12.20;;;11.00;;
44606;SDS011;30315;46.072;14.474;2023-05-23T06:25:49;11.45;;;10.25;;
44606;SDS011;30315;46.072;14.474;2023-05-23T06:28:18;11.52;;;10.32;;
44606;SDS011;30315;46.072;14.474;2023-05-23T06:30:48;11.30;;;10.07;;
44606;SDS011;30315;46.072;14.474;2023-05-23T06:33:19;10.75;;;9.75;;
44606;SDS011;30315;46.072;14.474;2023-05-23T06:35:47;13.25;;;9.88;;
44606;SDS011;30315;46.072;14.474;2023-05-23T06:38:15;14.75;;;11.02;;
44606;SDS011;30315;46.072;14.474;2023-05-23T06:40:44;11.65;;;10.55;;
44606;SDS011;30315;46.072;14.474;2023-05-23T06:43:14;13.82;;;10.35;;
44606;SDS011;30315;46.072;14.474;2023-05-23T06:45:52;12.68;;;10.65;;
44606;SDS011;30315;46.072;14.474;2023-05-23T06:48:20;12.15;;;10.35;;
44606;SDS011;30315;46.072;14.474;2023-05-23T06:50:50;10.45;;;9.40;;
44606;SDS011;30315;46.072;14.474;2023-05-23T06:53:21;9.88;;;8.98;;
44606;SDS011;30315;46.072;14.474;2023-05-23T06:55:50;10.23;;;8.80;;
44606;SDS011;30315;46.072;14.474;2023-05-23T07:00:48;9.90;;;8.90;;
44606;SDS011;30315;46.072;14.474;2023-05-23T07:03:39;11.30;;;9.90;;
44606;SDS011;30315;46.072;14.474;2023-05-23T07:06:07;9.88;;;9.00;;
44606;SDS011;30315;46.072;14.474;2023-05-23T07:08:38;12.15;;;9.57;;
44606;SDS011;30315;46.072;14.474;2023-05-23T07:11:06;10.55;;;9.23;;
44606;SDS011;30315;46.072;14.474;2023-05-23T07:13:40;11.90;;;9.70;;
44606;SDS011;30315;46.072;14.474;2023-05-23T07:16:16;11.48;;;9.32;;
44606;SDS011;30315;46.072;14.474;2023-05-23T07:18:54;9.18;;;8.05;;
44606;SDS011;30315;46.072;14.474;2023-05-23T07:21:23;8.48;;;7.72;;
44606;SDS011;30315;46.072;14.474;2023-05-23T07:23:51;9.27;;;8.35;;
44606;SDS011;30315;46.072;14.474;2023-05-23T07:26:20;8.98;;;8.23;;
44606;SDS011;30315;46.072;14.474;2023-05-23T07:28:52;8.82;;;7.88;;
44606;SDS011;30315;46.072;14.474;2023-05-23T07:31:21;10.00;;;8.50;;
44606;SDS011;30315;46.072;14.474;2023-05-23T07:33:52;9.20;;;8.07;;
44606;SDS011;30315;46.072;14.474;2023-05-23T07:36:32;8.07;;;7.45;;
44606;SDS011;30315;46.072;14.474;2023-05-23T07:39:05;9.73;;;8.48;;
44606;SDS011;30315;46.072;14.474;2023-05-23T07:41:33;8.32;;;7.57;;
44606;SDS011;30315;46.072;14.474;2023-05-23T07:44:01;13.50;;;8.02;;
44606;SDS011;30315;46.072;14.474;2023-05-23T07:46:29;8.98;;;8.10;;
44606;SDS011;30315;46.072;14.474;2023-05-23T07:48:57;8.90;;;8.10;;
44606;SDS011;30315;46.072;14.474;2023-05-23T07:51:26;8.27;;;7.47;;
44606;SDS011;30315;46.072;14.474;2023-05-23T07:53:54;9.48;;;8.13;;
44606;SDS011;30315;46.072;14.474;2023-05-23T07:56:22;9.23;;;8.32;;
44606;SDS011;30315;46.072;14.474;2023-05-23T07:58:50;8.95;;;8.15;;
44606;SDS011;30315;46.072;14.474;2023-05-23T08:01:19;8.00;;;7.40;;
44606;SDS011;30315;46.072;14.474;2023-05-23T08:04:02;10.18;;;8.20;;
44606;SDS011;30315;46.072;14.474;2023-05-23T08:07:01;8.40;;;7.60;;
44606;SDS011;30315;46.072;14.474;2023-05-23T08:09:42;12.95;;;8.02;;
44606;SDS011;30315;46.072;14.474;2023-05-23T08:12:14;9.45;;;7.68;;
44606;SDS011;30315;46.072;14.474;2023-05-23T08:14:44;8.07;;;7.25;;
44606;SDS011;30315;46.072;14.474;2023-05-23T08:17:21;6.88;;;6.28;;
44606;SDS011;30315;46.072;14.474;2023-05-23T08:19:51;8.02;;;6.80;;
44606;SDS011;30315;46.072;14.474;2023-05-23T08:22:23;7.63;;;7.03;;
44606;SDS011;30315;46.072;14.474;2023-05-23T08:24:51;11.25;;;8.18;;
44606;SDS011;30315;46.072;14.474;2023-05-23T08:27:23;9.70;;;7.05;;
44606;SDS011;30315;46.072;14.474;2023-05-23T08:29:56;6.93;;;6.32;;
44606;SDS011;30315;46.072;14.474;2023-05-23T08:32:24;7.70;;;7.00;;
44606;SDS011;30315;46.072;14.474;2023-05-23T08:34:55;7.63;;;7.03;;
44606;SDS011;30315;46.072;14.474;2023-05-23T08:37:24;8.93;;;6.70;;
44606;SDS011;30315;46.072;14.474;2023-05-23T08:39:52;8.43;;;7.63;;
44606;SDS011;30315;46.072;14.474;2023-05-23T08:42:42;7.53;;;6.93;;
44606;SDS011;30315;46.072;14.474;2023-05-23T08:45:13;7.00;;;6.30;;
44606;SDS011;30315;46.072;14.474;2023-05-23T08:47:43;7.05;;;6.35;;
44606;SDS011;30315;46.072;14.474;2023-05-23T08:50:15;7.18;;;6.57;;
44606;SDS011;30315;46.072;14.474;2023-05-23T08:55:25;7.55;;;6.80;;
44606;SDS011;30315;46.072;14.474;2023-05-23T08:57:59;7.03;;;6.10;;
44606;SDS011;30315;46.072;14.474;2023-05-23T09:00:39;6.38;;;5.88;;
44606;SDS011;30315;46.072;14.474;2023-05-23T09:03:12;6.55;;;6.05;;
44606;SDS011;30315;46.072;14.474;2023-05-23T09:05:50;6.85;;;6.28;;
44606;SDS011;30315;46.072;14.474;2023-05-23T09:08:21;6.63;;;5.93;;
44606;SDS011;30315;46.072;14.474;2023-05-23T09:10:57;10.55;;;6.70;;
44606;SDS011;30315;46.072;14.474;2023-05-23T09:13:26;6.07;;;5.68;;
44606;SDS011;30315;46.072;14.474;2023-05-23T09:18:34;7.88;;;6.10;;
44606;SDS011;30315;46.072;14.474;2023-05-23T09:21:10;9.38;;;6.13;;
44606;SDS011;30315;46.072;14.474;2023-05-23T09:24:05;6.45;;;5.95;;
44606;SDS011;30315;46.072;14.474;2023-05-23T09:26:35;6.78;;;6.20;;
44606;SDS011;30315;46.072;14.474;2023-05-23T09:29:04;6.27;;;5.80;;
44606;SDS011;30315;46.072;14.474;2023-05-23T09:31:34;7.00;;;5.88;;
44606;SDS011;30315;46.072;14.474;2023-05-23T09:34:02;7.25;;;6.55;;
44606;SDS011;30315;46.072;14.474;2023-05-23T09:36:31;7.35;;;5.90;;
44606;SDS011;30315;46.072;14.474;2023-05-23T09:39:02;6.38;;;5.78;;
44606;SDS011;30315;46.072;14.474;2023-05-23T09:41:32;5.95;;;5.32;;
44606;SDS011;30315;46.072;14.474;2023-05-23T09:44:09;11.05;;;7.28;;
44606;SDS011;30315;46.072;14.474;2023-05-23T09:46:38;6.90;;;6.10;;
44606;SDS011;30315;46.072;14.474;2023-05-23T09:49:15;8.07;;;6.40;;
44606;SDS011;30315;46.072;14.474;2023-05-23T09:51:56;6.80;;;5.82;;
44606;SDS011;30315;46.072;14.474;2023-05-23T09:54:32;6.28;;;5.72;;
44606;SDS011;30315;46.072;14.474;2023-05-23T09:57:01;5.45;;;4.95;;
44606;SDS011;30315;46.072;14.474;2023-05-23T09:59:34;6.53;;;5.95;;
44606;SDS011;30315;46.072;14.474;2023-05-23T10:02:06;6.10;;;5.55;;
44606;SDS011;30315;46.072;14.474;2023-05-23T10:04:40;6.10;;;5.45;;
44606;SDS011;30315;46.072;14.474;2023-05-23T10:07:12;5.53;;;5.03;;
44606;SDS011;30315;46.072;14.474;2023-05-23T10:09:41;6.43;;;5.78;;
44606;SDS011;30315;46.072;14.474;2023-05-23T10:15:03;8.02;;;5.70;;
44606;SDS011;30315;46.072;14.474;2023-05-23T10:20:17;9.02;;;4.95;;
44606;SDS011;30315;46.072;14.474;2023-05-23T10:22:50;5.72;;;5.22;;
44606;SDS011;30315;46.072;14.474;2023-05-23T10:25:19;6.57;;;4.88;;
44606;SDS011;30315;46.072;14.474;2023-05-23T10:27:47;8.48;;;4.97;;
44606;SDS011;30315;46.072;14.474;2023-05-23T10:30:19;7.65;;;5.07;;
44606;SDS011;30315;46.072;14.474;2023-05-23T10:32:47;5.45;;;5.05;;
44606;SDS011;30315;46.072;14.474;2023-05-23T10:35:20;6.00;;;5.30;;
44606;SDS011;30315;46.072;14.474;2023-05-23T10:49:39;5.35;;;4.93;;
44606;SDS011;30315;46.072;14.474;2023-05-23T10:52:14;7.15;;;4.57;;
44606;SDS011;30315;46.072;14.474;2023-05-23T10:54:43;5.15;;;4.70;;
44606;SDS011;30315;46.072;14.474;2023-05-23T10:57:16;4.03;;;3.72;;
44606;SDS011;30315;46.072;14.474;2023-05-23T10:59:51;4.75;;;4.32;;
44606;SDS011;30315;46.072;14.474;2023-05-23T11:02:25;4.50;;;4.18;;
44606;SDS011;30315;46.072;14.474;2023-05-23T11:07:45;6.47;;;5.25;;
44606;SDS011;30315;46.072;14.474;2023-05-23T11:10:12;4.85;;;4.28;;
44606;SDS011;30315;46.072;14.474;2023-05-23T11:12:41;4.53;;;4.22;;
44606;SDS011;30315;46.072;14.474;2023-05-23T11:17:50;5.72;;;4.55;;
44606;SDS011;30315;46.072;14.474;2023-05-23T11:20:25;4.50;;;4.10;;
44606;SDS011;30315;46.072;14.474;2023-05-23T11:28:11;4.55;;;3.97;;
44606;SDS011;30315;46.072;14.474;2023-05-23T11:30:39;4.38;;;3.97;;
44606;SDS011;30315;46.072;14.474;2023-05-23T11:33:07;4.00;;;3.60;;
44606;SDS011;30315;46.072;14.474;2023-05-23T11:35:39;4.18;;;3.88;;
44606;SDS011;30315;46.072;14.474;2023-05-23T11:38:07;4.65;;;4.25;;
44606;SDS011;30315;46.072;14.474;2023-05-23T11:40:38;4.53;;;4.22;;
44606;SDS011;30315;46.072;14.474;2023-05-23T11:43:09;4.55;;;4.22;;
44606;SDS011;30315;46.072;14.474;2023-05-23T11:45:40;15.05;;;9.38;;
44606;SDS011;30315;46.072;14.474;2023-05-23T11:48:09;15.25;;;9.20;;
44606;SDS011;30315;46.072;14.474;2023-05-23T11:50:44;12.10;;;6.93;;
44606;SDS011;30315;46.072;14.474;2023-05-23T11:53:16;13.23;;;8.05;;
44606;SDS011;30315;46.072;14.474;2023-05-23T11:55:53;28.38;;;10.80;;
44606;SDS011;30315;46.072;14.474;2023-05-23T11:58:21;43.78;;;15.85;;
44606;SDS011;30315;46.072;14.474;2023-05-23T12:00:57;9.20;;;5.75;;
44606;SDS011;30315;46.072;14.474;2023-05-23T12:03:26;12.52;;;6.63;;
44606;SDS011;30315;46.072;14.474;2023-05-23T12:05:54;9.93;;;6.63;;
44606;SDS011;30315;46.072;14.474;2023-05-23T12:08:21;11.73;;;5.97;;
44606;SDS011;30315;46.072;14.474;2023-05-23T12:10:50;11.60;;;6.13;;
44606;SDS011;30315;46.072;14.474;2023-05-23T12:13:19;4.97;;;4.45;;
44606;SDS011;30315;46.072;14.474;2023-05-23T12:15:51;10.52;;;6.15;;
44606;SDS011;30315;46.072;14.474;2023-05-23T12:18:22;11.65;;;6.45;;
44606;SDS011;30315;46.072;14.474;2023-05-23T12:20:53;3.75;;;3.45;;
44606;SDS011;30315;46.072;14.474;2023-05-23T12:23:28;8.88;;;5.10;;
44606;SDS011;30315;46.072;14.474;2023-05-23T12:25:59;8.23;;;5.00;;
44606;SDS011;30315;46.072;14.474;2023-05-23T12:28:41;6.35;;;4.80;;
44606;SDS011;30315;46.072;14.474;2023-05-23T12:31:11;6.88;;;4.00;;
44606;SDS011;30315;46.072;14.474;2023-05-23T12:33:42;6.57;;;4.35;;
44606;SDS011;30315;46.072;14.474;2023-05-23T12:36:10;4.75;;;4.30;;
44606;SDS011;30315;46.072;14.474;2023-05-23T12:38:41;3.67;;;3.35;;
44606;SDS011;30315;46.072;14.474;2023-05-23T12:41:14;7.10;;;4.63;;
44606;SDS011;30315;46.072;14.474;2023-05-23T12:43:52;5.38;;;4.20;;
44606;SDS011;30315;46.072;14.474;2023-05-23T12:46:21;4.78;;;4.05;;
44606;SDS011;30315;46.072;14.474;2023-05-23T12:48:49;5.15;;;4.13;;
44606;SDS011;30315;46.072;14.474;2023-05-23T12:51:16;5.03;;;3.80;;
44606;SDS011;30315;46.072;14.474;2023-05-23T12:53:45;5.28;;;3.70;;
44606;SDS011;30315;46.072;14.474;2023-05-23T12:56:12;3.30;;;3.10;;
44606;SDS011;30315;46.072;14.474;2023-05-23T12:58:39;3.20;;;3.00;;
44606;SDS011;30315;46.072;14.474;2023-05-23T13:01:07;3.28;;;2.92;;
44606;SDS011;30315;46.072;14.474;2023-05-23T13:03:35;3.40;;;3.10;;
44606;SDS011;30315;46.072;14.474;2023-05-23T13:06:04;3.50;;;3.15;;
44606;SDS011;30315;46.072;14.474;2023-05-23T13:08:32;3.05;;;2.85;;
44606;SDS011;30315;46.072;14.474;2023-05-23T13:10:59;3.58;;;3.28;;
44606;SDS011;30315;46.072;14.474;2023-05-23T13:13:26;4.35;;;3.90;;
44606;SDS011;30315;46.072;14.474;2023-05-23T13:15:54;9.00;;;3.70;;
44606;SDS011;30315;46.072;14.474;2023-05-23T13:18:22;3.53;;;3.23;;
44606;SDS011;30315;46.072;14.474;2023-05-23T13:20:49;3.70;;;3.40;;
44606;SDS011;30315;46.072;14.474;2023-05-23T13:23:16;3.58;;;3.28;;
44606;SDS011;30315;46.072;14.474;2023-05-23T13:25:43;3.95;;;3.75;;
44606;SDS011;30315;46.072;14.474;2023-05-23T13:28:10;5.95;;;4.25;;
44606;SDS011;30315;46.072;14.474;2023-05-23T13:30:37;4.05;;;3.58;;
44606;SDS011;30315;46.072;14.474;2023-05-23T13:33:04;5.78;;;3.63;;
44606;SDS011;30315;46.072;14.474;2023-05-23T13:35:31;4.18;;;3.78;;
44606;SDS011;30315;46.072;14.474;2023-05-23T13:37:58;5.80;;;3.10;;
44606;SDS011;30315;46.072;14.474;2023-05-23T13:40:25;5.20;;;3.47;;
44606;SDS011;30315;46.072;14.474;2023-05-23T13:42:52;5.15;;;3.53;;
44606;SDS011;30315;46.072;14.474;2023-05-23T13:45:19;5.90;;;3.28;;
44606;SDS011;30315;46.072;14.474;2023-05-23T13:47:48;7.25;;;3.60;;
44606;SDS011;30315;46.072;14.474;2023-05-23T13:50:15;4.05;;;3.72;;
44606;SDS011;30315;46.072;14.474;2023-05-23T13:52:43;3.75;;;3.45;;
44606;SDS011;30315;46.072;14.474;2023-05-23T13:55:14;4.88;;;3.60;;
44606;SDS011;30315;46.072;14.474;2023-05-23T13:57:42;3.53;;;3.20;;
44606;SDS011;30315;46.072;14.474;2023-05-23T14:00:09;3.10;;;2.65;;
44606;SDS011;30315;46.072;14.474;2023-05-23T14:02:38;3.65;;;3.20;;
44606;SDS011;30315;46.072;14.474;2023-05-23T14:05:05;5.05;;;3.58;;
44606;SDS011;30315;46.072;14.474;2023-05-23T14:07:33;3.42;;;3.05;;
44606;SDS011;30315;46.072;14.474;2023-05-23T14:10:00;5.35;;;3.53;;
44606;SDS011;30315;46.072;14.474;2023-05-23T14:12:27;4.47;;;3.78;;
44606;SDS011;30315;46.072;14.474;2023-05-23T14:14:54;4.18;;;3.83;;
44606;SDS011;30315;46.072;14.474;2023-05-23T14:17:22;6.60;;;4.05;;
44606;SDS011;30315;46.072;14.474;2023-05-23T14:19:49;7.70;;;4.65;;
44606;SDS011;30315;46.072;14.474;2023-05-23T14:22:16;6.35;;;4.70;;
44606;SDS011;30315;46.072;14.474;2023-05-23T14:24:43;6.95;;;4.57;;
44606;SDS011;30315;46.072;14.474;2023-05-23T14:27:10;8.63;;;4.80;;
44606;SDS011;30315;46.072;14.474;2023-05-23T14:29:37;6.43;;;4.82;;
44606;SDS011;30315;46.072;14.474;2023-05-23T14:32:05;8.02;;;5.43;;
44606;SDS011;30315;46.072;14.474;2023-05-23T14:34:32;9.38;;;5.78;;
44606;SDS011;30315;46.072;14.474;2023-05-23T14:36:59;6.10;;;5.25;;
44606;SDS011;30315;46.072;14.474;2023-05-23T14:39:26;8.32;;;5.65;;
44606;SDS011;30315;46.072;14.474;2023-05-23T14:41:54;6.45;;;5.85;;
44606;SDS011;30315;46.072;14.474;2023-05-23T14:44:21;6.45;;;5.72;;
44606;SDS011;30315;46.072;14.474;2023-05-23T14:46:49;5.70;;;5.20;;
44606;SDS011;30315;46.072;14.474;2023-05-23T14:49:16;7.10;;;5.47;;
44606;SDS011;30315;46.072;14.474;2023-05-23T14:51:44;6.45;;;5.60;;
44606;SDS011;30315;46.072;14.474;2023-05-23T14:54:17;6.30;;;5.55;;
44606;SDS011;30315;46.072;14.474;2023-05-23T14:56:44;10.32;;;5.53;;
44606;SDS011;30315;46.072;14.474;2023-05-23T14:59:11;6.07;;;5.50;;
44606;SDS011;30315;46.072;14.474;2023-05-23T15:01:38;5.35;;;4.53;;
44606;SDS011;30315;46.072;14.474;2023-05-23T15:04:06;7.95;;;4.75;;
44606;SDS011;30315;46.072;14.474;2023-05-23T15:06:35;4.90;;;4.57;;
44606;SDS011;30315;46.072;14.474;2023-05-23T15:09:04;7.17;;;4.80;;
44606;SDS011;30315;46.072;14.474;2023-05-23T15:11:33;5.60;;;5.00;;
44606;SDS011;30315;46.072;14.474;2023-05-23T15:14:29;6.28;;;5.47;;
44606;SDS011;30315;46.072;14.474;2023-05-23T15:16:57;6.45;;;5.53;;
44606;SDS011;30315;46.072;14.474;2023-05-23T15:19:33;10.52;;;6.57;;
44606;SDS011;30315;46.072;14.474;2023-05-23T15:22:02;12.05;;;5.70;;
44606;SDS011;30315;46.072;14.474;2023-05-23T15:24:30;4.10;;;3.20;;
44606;SDS011;30315;46.072;14.474;2023-05-23T15:26:57;13.55;;;4.03;;
44606;SDS011;30315;46.072;14.474;2023-05-23T15:29:44;6.18;;;4.03;;
44606;SDS011;30315;46.072;14.474;2023-05-23T15:32:11;10.43;;;5.10;;
44606;SDS011;30315;46.072;14.474;2023-05-23T15:34:38;7.20;;;4.70;;
44606;SDS011;30315;46.072;14.474;2023-05-23T15:37:05;5.40;;;4.85;;
44606;SDS011;30315;46.072;14.474;2023-05-23T15:39:32;5.25;;;4.75;;